This is the latest recevied weather packets stored in our database for station/object KY4EF. If no packets are shown the sender has not sent any weather packets the latest 10 day(s).
| Time | Temp. | Humidity | Pressure | Rain* | Wind** | Luminosity | Snow |
|---|---|---|---|---|---|---|---|
| 1777741952 | 17.22° C | 39% | 1011.9 hPa | 0 mm | - | 787 W/m² | - |
| 1777741649 | 17.78° C | 40% | 1012.2 hPa | 0 mm | - | 738 W/m² | - |
| 1777741345 | 17.78° C | 43% | 1011.9 hPa | 0 mm | - | 406 W/m² | - |
| 1777741041 | 17.22° C | 39% | 1011.9 hPa | 0 mm | - | 800 W/m² | - |
| 1777740739 | 17.78° C | 40% | 1011.9 hPa | 0 mm | - | 790 W/m² | - |
| 1777740435 | 17.78° C | 41% | 1012 hPa | 0 mm | - | 454 W/m² | - |
| 1777740133 | 16.67° C | 43% | 1012.2 hPa | 0 mm | - | 314 W/m² | - |
| 1777739828 | 16.11° C | 42% | 1012.4 hPa | 0 mm | - | 655 W/m² | - |
| 1777739525 | 16.67° C | 43% | 1012 hPa | 0 mm | - | 473 W/m² | - |
| 1777739221 | 16.67° C | 43% | 1012.5 hPa | 0 mm | - | 374 W/m² | - |
| 1777738918 | 15.56° C | 46% | 1012.6 hPa | 0 mm | - | 750 W/m² | - |
| 1777738610 | 16.11° C | 48% | 1012.7 hPa | 0 mm | - | 825 W/m² | - |
| 1777738307 | 16.67° C | 46% | 1012.7 hPa | 0 mm | - | 366 W/m² | - |
| 1777738005 | 16.67° C | 46% | 1012.4 hPa | 0 mm | - | 444 W/m² | - |
| 1777737704 | 17.78° C | 48% | 1012.4 hPa | 0 mm | - | 599 W/m² | - |
| 1777737401 | 17.78° C | 45% | 1012.5 hPa | 0 mm | - | 510 W/m² | - |
| 1777737098 | 16.67° C | 49% | 1012.5 hPa | 0 mm | - | 469 W/m² | - |
| 1777736794 | 17.78° C | 49% | 1012.3 hPa | 0 mm | - | 785 W/m² | - |
| 1777736166 | 18.33° C | 47% | 1012.4 hPa | 0 mm | - | 707 W/m² | - |
| 1777735863 | 17.22° C | 52% | 1012.3 hPa | 0 mm | - | 680 W/m² | - |
| 1777735561 | 17.78° C | 48% | 1012.5 hPa | 0 mm | - | 674 W/m² | - |
| 1777735258 | 18.33° C | 49% | 1012.3 hPa | 0 mm | - | 300 W/m² | - |
| 1777734954 | 18.89° C | 49% | 1012.3 hPa | 0 mm | - | 200 W/m² | - |
| 1777734652 | 16.11° C | 55% | 1012.3 hPa | 0 mm | - | 643 W/m² | - |
| 1777734349 | 16.11° C | 56% | 1012.3 hPa | 0 mm | - | 597 W/m² | - |
* Rain latest hour (hover to see other rain measurements)
** Current wind speed in m/s (hover to see current wind gust speed)